createdAt,value
2019-05-12T00:02:00.815Z,0.90
2019-05-12T00:04:29.927Z,0.87
2019-05-12T00:06:58.995Z,0.90
2019-05-12T00:09:28.448Z,0.93
2019-05-12T00:11:59.127Z,0.90
2019-05-12T00:14:28.409Z,1.07
2019-05-12T00:16:58.097Z,1.40
2019-05-12T00:19:28.583Z,1.60
2019-05-12T00:21:58.740Z,1.30
2019-05-12T00:24:28.179Z,1.30
2019-05-12T00:26:59.315Z,1.20
2019-05-12T00:29:28.764Z,1.50
2019-05-12T00:31:58.122Z,1.30
2019-05-12T00:34:28.881Z,1.30
2019-05-12T00:36:58.202Z,1.30
2019-05-12T00:39:27.904Z,1.27
2019-05-12T00:41:58.627Z,1.10
2019-05-12T00:44:28.534Z,1.40
2019-05-12T00:46:57.836Z,1.30
2019-05-12T00:49:28.954Z,1.23
2019-05-12T00:51:58.732Z,1.27
2019-05-12T00:54:28.413Z,1.30
2019-05-12T00:56:58.590Z,1.20
2019-05-12T00:59:28.018Z,1.43
2019-05-12T01:01:58.626Z,1.20
2019-05-12T01:04:29.102Z,1.30
2019-05-12T01:06:58.417Z,1.23
2019-05-12T01:09:28.218Z,1.40
2019-05-12T01:11:58.769Z,1.37
2019-05-12T01:14:28.092Z,1.30
2019-05-12T01:16:57.858Z,1.70
2019-05-12T01:19:32.898Z,1.47
2019-05-12T01:22:01.955Z,1.40
2019-05-12T01:24:31.048Z,1.60
2019-05-12T01:27:00.111Z,1.40
2019-05-12T01:29:29.189Z,1.23
2019-05-12T01:32:04.470Z,1.70
2019-05-12T01:34:33.583Z,1.60
2019-05-12T01:37:20.430Z,1.70
2019-05-12T01:39:49.463Z,1.50
2019-05-12T01:42:18.556Z,1.70
2019-05-12T01:44:48.149Z,1.40
2019-05-12T01:47:18.794Z,1.60
2019-05-12T01:49:48.800Z,1.40
2019-05-12T01:52:17.986Z,1.50
2019-05-12T01:54:48.302Z,1.37
2019-05-12T01:57:18.800Z,1.50
2019-05-12T01:59:48.447Z,1.70
2019-05-12T02:02:18.016Z,1.30
2019-05-12T02:05:08.582Z,1.30
2019-05-12T02:07:58.404Z,1.40
2019-05-12T02:10:28.711Z,1.40
2019-05-12T02:12:59.306Z,1.50
2019-05-12T02:15:28.750Z,1.30
2019-05-12T02:17:58.968Z,1.30
2019-05-12T02:20:28.948Z,1.43
2019-05-12T02:22:58.604Z,1.60
2019-05-12T02:25:28.654Z,1.90
2019-05-12T02:27:58.599Z,1.70
2019-05-12T02:30:30.293Z,1.43
2019-05-12T02:32:59.681Z,1.50
2019-05-12T02:35:29.026Z,1.70
2019-05-12T02:37:58.104Z,1.83
2019-05-12T02:40:27.214Z,1.60
2019-05-12T02:42:56.324Z,1.70
2019-05-12T02:45:25.896Z,1.50
2019-05-12T02:47:55.152Z,1.70
2019-05-12T02:50:35.903Z,1.70
2019-05-12T02:53:05.862Z,1.80
2019-05-12T02:55:35.738Z,1.67
2019-05-12T02:58:06.202Z,1.40
2019-05-12T03:00:36.359Z,2.00
2019-05-12T03:03:08.413Z,1.60
2019-05-12T03:05:38.712Z,1.57
2019-05-12T03:08:07.758Z,1.70
2019-05-12T03:10:37.123Z,1.70
2019-05-12T03:13:06.195Z,1.63
2019-05-12T03:15:37.373Z,2.03
2019-05-12T03:18:07.005Z,1.80
2019-05-12T03:20:36.362Z,1.63
2019-05-12T03:23:06.427Z,1.40
2019-05-12T03:25:37.114Z,1.80
2019-05-12T03:28:08.718Z,1.40
2019-05-12T03:30:39.984Z,2.20
2019-05-12T03:33:10.743Z,1.80
2019-05-12T03:35:43.635Z,1.60
2019-05-12T03:38:09.660Z,1.60
2019-05-12T03:40:39.137Z,1.80
2019-05-12T03:43:08.348Z,1.53
2019-05-12T03:45:37.405Z,2.23
2019-05-12T03:48:06.663Z,2.07
2019-05-12T03:50:36.363Z,1.93
2019-05-12T03:53:10.056Z,2.03
2019-05-12T03:55:41.842Z,2.03
2019-05-12T03:58:07.574Z,2.20
2019-05-12T04:00:36.770Z,1.77
2019-05-12T04:03:06.049Z,1.73
2019-05-12T04:05:37.009Z,1.83
2019-05-12T04:08:06.758Z,1.80
2019-05-12T04:10:36.868Z,1.60
2019-05-12T04:13:06.422Z,1.63
2019-05-12T04:15:35.957Z,1.80
2019-05-12T04:18:06.475Z,1.80
2019-05-12T04:20:36.523Z,1.80
2019-05-12T04:23:06.818Z,2.33
2019-05-12T04:25:50.872Z,1.70
2019-05-12T04:28:07.007Z,1.80
2019-05-12T04:30:36.207Z,2.03
2019-05-12T04:33:05.912Z,2.33
2019-05-12T04:35:35.893Z,1.97
2019-05-12T04:38:05.586Z,2.17
2019-05-12T04:40:36.187Z,1.90
2019-05-12T04:43:06.601Z,1.87
2019-05-12T04:45:35.998Z,1.90
2019-05-12T04:48:06.064Z,2.20
2019-05-12T04:50:36.394Z,1.80
2019-05-12T04:53:06.730Z,2.00
2019-05-12T04:55:36.615Z,1.80
2019-05-12T04:58:06.349Z,1.70
2019-05-12T05:00:36.085Z,1.60
2019-05-12T05:03:05.949Z,1.57
2019-05-12T05:05:36.224Z,2.00
2019-05-12T05:08:05.748Z,1.73
2019-05-12T05:10:35.134Z,1.70
2019-05-12T05:13:05.563Z,1.60
2019-05-12T05:15:35.514Z,1.63
2019-05-12T05:18:06.771Z,1.90
2019-05-12T05:20:35.729Z,1.93
2019-05-12T05:23:04.913Z,1.93
2019-05-12T05:25:34.710Z,1.40
2019-05-12T05:28:04.333Z,1.83
2019-05-12T05:30:34.167Z,2.30
2019-05-12T05:33:05.073Z,1.53
2019-05-12T05:35:39.694Z,1.93
2019-05-12T05:38:06.039Z,2.10
2019-05-12T05:40:36.040Z,1.53
2019-05-12T05:43:12.401Z,1.63
2019-05-12T05:45:36.108Z,2.03
2019-05-12T05:48:09.717Z,2.00
2019-05-12T05:50:36.006Z,1.60
2019-05-12T05:53:09.170Z,2.27
2019-05-12T05:55:35.904Z,1.40
2019-05-12T05:58:10.071Z,2.20
2019-05-12T06:00:39.075Z,2.13
2019-05-12T06:03:17.049Z,2.00
2019-05-12T06:05:38.672Z,1.80
2019-05-12T06:08:18.669Z,1.80
2019-05-12T06:10:40.418Z,2.00
2019-05-12T06:13:09.711Z,1.80
2019-05-12T06:15:40.814Z,1.77
2019-05-12T06:18:09.589Z,1.50
2019-05-12T06:20:38.662Z,1.60
2019-05-12T06:23:07.766Z,1.80
2019-05-12T06:25:46.466Z,2.00
2019-05-12T06:28:08.943Z,1.97
2019-05-12T06:30:44.131Z,1.60
2019-05-12T06:33:09.024Z,1.87
2019-05-12T06:35:42.195Z,1.80
2019-05-12T06:38:08.963Z,1.67
2019-05-12T06:40:42.303Z,1.67
2019-05-12T06:43:08.855Z,2.07
2019-05-12T06:45:42.655Z,1.77
2019-05-12T06:48:08.744Z,2.13
2019-05-12T06:50:39.390Z,1.20
2019-05-12T06:53:08.676Z,1.30
2019-05-12T06:55:39.396Z,1.50
2019-05-12T06:58:08.721Z,1.53
2019-05-12T07:00:37.810Z,1.40
2019-05-12T07:03:06.883Z,1.50
2019-05-12T07:05:38.437Z,1.43
2019-05-12T07:08:06.754Z,1.50
2019-05-12T07:10:43.072Z,2.23
2019-05-12T07:13:06.642Z,1.30
2019-05-12T07:15:40.399Z,1.80
2019-05-12T07:18:10.388Z,2.00
2019-05-12T07:20:39.610Z,1.90
2019-05-12T07:23:08.631Z,1.60
2019-05-12T07:25:37.707Z,1.53
2019-05-12T07:28:08.104Z,1.50
2019-05-12T07:30:37.430Z,1.60
2019-05-12T07:33:06.498Z,1.60
2019-05-12T07:35:35.631Z,1.80
2019-05-12T07:38:05.133Z,1.90
2019-05-12T07:40:37.415Z,1.90
2019-05-12T07:43:09.851Z,1.50
2019-05-12T07:45:36.039Z,1.70
2019-05-12T07:48:10.083Z,1.90
2019-05-12T07:50:35.916Z,1.77
2019-05-12T07:53:05.015Z,1.47
2019-05-12T07:55:34.418Z,1.60
2019-05-12T07:58:12.637Z,2.27
2019-05-12T08:00:34.509Z,2.37
2019-05-12T08:03:16.286Z,2.17
2019-05-12T08:05:36.939Z,2.30
2019-05-12T08:08:09.377Z,2.23
2019-05-12T08:10:36.881Z,1.80
2019-05-12T08:13:05.938Z,1.93
2019-05-12T08:15:35.023Z,1.90
2019-05-12T08:18:07.858Z,1.40
2019-05-12T08:20:34.923Z,1.60
2019-05-12T08:23:10.257Z,1.60
2019-05-12T08:25:35.298Z,1.47
2019-05-12T08:30:56.026Z,2.43
2019-05-12T08:33:25.619Z,1.63
2019-05-12T08:35:55.366Z,1.47
2019-05-12T08:38:24.994Z,1.40
2019-05-12T08:40:54.529Z,1.70
2019-05-12T08:43:24.197Z,1.30
2019-05-12T08:45:53.621Z,1.67
2019-05-12T08:48:24.972Z,1.57
2019-05-12T08:50:54.562Z,1.90
2019-05-12T08:53:26.057Z,1.80
2019-05-12T08:55:54.736Z,1.70
2019-05-12T08:58:33.178Z,1.43
2019-05-12T09:00:57.528Z,1.83
2019-05-12T09:03:30.344Z,1.47
2019-05-12T09:05:57.342Z,1.53
2019-05-12T09:08:26.895Z,1.40
2019-05-12T09:10:56.053Z,1.53
2019-05-12T09:13:25.050Z,1.53
2019-05-12T09:15:54.304Z,1.60
2019-05-12T09:18:28.508Z,1.50
2019-05-12T09:20:55.714Z,1.40
2019-05-12T09:23:25.015Z,1.50
2019-05-12T09:25:57.267Z,1.70
2019-05-12T09:28:24.835Z,1.60
2019-05-12T09:30:54.479Z,1.47
2019-05-12T09:33:29.616Z,1.57
2019-05-12T09:35:54.409Z,1.53
2019-05-12T09:38:26.246Z,1.60
2019-05-12T09:41:00.840Z,1.70
2019-05-12T09:43:25.063Z,1.50
2019-05-12T09:45:56.468Z,1.50
2019-05-12T09:48:24.924Z,1.30
2019-05-12T09:51:00.255Z,1.43
2019-05-12T09:53:24.820Z,1.10
2019-05-12T09:55:54.026Z,1.40
2019-05-12T09:58:27.240Z,1.53
2019-05-12T10:00:54.446Z,1.30
2019-05-12T10:03:24.179Z,1.47
2019-05-12T10:05:53.530Z,1.30
2019-05-12T10:08:24.192Z,1.50
2019-05-12T10:10:53.688Z,1.27
2019-05-12T10:13:28.170Z,1.40
2019-05-12T10:15:53.751Z,1.40
2019-05-12T10:19:23.507Z,1.13
2019-05-12T10:22:05.290Z,1.23
2019-05-12T10:24:41.463Z,1.17
2019-05-12T10:27:05.162Z,1.30
2019-05-12T10:29:34.230Z,1.53
2019-05-12T10:32:03.981Z,1.50
2019-05-12T10:34:38.115Z,1.30
2019-05-12T10:37:04.252Z,1.30
2019-05-12T10:39:33.510Z,1.57
2019-05-12T10:42:02.669Z,2.10
2019-05-12T10:44:37.717Z,1.33
2019-05-12T10:47:04.573Z,1.30
2019-05-12T10:49:33.847Z,1.30
2019-05-12T10:52:03.848Z,1.70
2019-05-12T10:54:34.247Z,1.90
2019-05-12T10:57:04.990Z,1.43
2019-05-12T10:59:38.759Z,1.40
2019-05-12T11:02:05.071Z,1.40
2019-05-12T11:04:38.867Z,1.20
2019-05-12T11:07:04.934Z,1.30
2019-05-12T11:09:34.676Z,1.30
2019-05-12T11:12:03.860Z,1.30
2019-05-12T11:14:34.163Z,1.50
2019-05-12T11:17:07.541Z,1.60
2019-05-12T11:19:40.738Z,1.20
2019-05-12T11:22:06.547Z,1.17
2019-05-12T11:24:35.641Z,1.40
2019-05-12T11:27:04.738Z,1.40
2019-05-12T11:29:45.668Z,1.20
2019-05-12T11:32:04.647Z,1.27
2019-05-12T11:34:33.669Z,1.03
2019-05-12T11:37:03.403Z,1.30
2019-05-12T11:39:38.683Z,0.90
2019-05-12T11:42:04.184Z,1.30
2019-05-12T11:44:33.790Z,1.30
2019-05-12T11:47:03.666Z,1.00
2019-05-12T11:49:33.355Z,1.17
2019-05-12T11:52:07.478Z,1.10
2019-05-12T11:54:33.689Z,0.97
2019-05-12T11:57:02.780Z,0.80
2019-05-12T11:59:34.030Z,0.70
2019-05-12T12:02:02.573Z,1.10
2019-05-12T12:04:47.057Z,0.80
2019-05-12T12:07:16.645Z,1.30
2019-05-12T12:09:49.551Z,1.00
2019-05-12T12:12:16.601Z,1.27
2019-05-12T12:14:50.180Z,1.10
2019-05-12T12:17:16.523Z,0.93
2019-05-12T12:19:46.935Z,1.10
2019-05-12T12:22:20.509Z,1.00
2019-05-12T12:24:46.861Z,1.30
2019-05-12T12:27:15.916Z,1.10
2019-05-12T12:29:44.986Z,1.10
2019-05-12T12:32:18.454Z,0.80
2019-05-12T12:34:44.808Z,0.97
2019-05-12T12:37:18.806Z,1.03
2019-05-12T12:39:44.739Z,1.20
2019-05-12T12:42:14.059Z,1.00
2019-05-12T12:44:43.184Z,1.20
2019-05-12T12:47:13.901Z,1.40
2019-05-12T12:49:45.361Z,1.10
2019-05-12T12:52:14.012Z,1.20
2019-05-12T12:54:43.854Z,1.17
2019-05-12T12:57:13.591Z,1.00
2019-05-12T12:59:51.004Z,1.27
2019-05-12T13:02:14.298Z,0.90
2019-05-12T13:04:46.056Z,1.10
2019-05-12T13:07:14.521Z,0.93
2019-05-12T13:09:44.082Z,1.17
2019-05-12T13:12:17.009Z,1.07
2019-05-12T13:14:44.400Z,1.20
2019-05-12T13:17:14.269Z,1.07
2019-05-12T13:19:43.765Z,0.90
2019-05-12T13:22:14.971Z,1.00
2019-05-12T13:24:44.012Z,0.93
2019-05-12T13:27:14.212Z,1.10
2019-05-12T13:29:43.337Z,1.00
2019-05-12T13:32:13.775Z,0.77
2019-05-12T13:34:43.123Z,0.83
2019-05-12T13:37:15.573Z,0.90
2019-05-12T13:39:55.338Z,1.00
2019-05-12T13:42:13.921Z,0.80
2019-05-12T13:44:43.619Z,0.90
2019-05-12T13:47:14.031Z,1.00
2019-05-12T13:49:47.014Z,1.03
2019-05-12T13:52:14.010Z,0.97
2019-05-12T13:54:43.700Z,1.10
2019-05-12T13:57:13.386Z,1.00
2019-05-12T13:59:43.491Z,1.00
2019-05-12T14:02:13.944Z,1.03
2019-05-12T14:04:44.332Z,1.00
2019-05-12T14:07:17.872Z,1.00
2019-05-12T14:09:44.427Z,1.23
2019-05-12T14:12:13.679Z,1.00
2019-05-12T14:14:43.697Z,0.87
2019-05-12T14:17:14.820Z,1.10
2019-05-12T14:19:46.106Z,0.87
2019-05-12T14:22:21.328Z,0.80
2019-05-12T14:24:46.835Z,0.93
2019-05-12T14:27:24.306Z,0.90
2019-05-12T14:29:50.067Z,0.80
2019-05-12T14:32:19.277Z,1.20
2019-05-12T14:34:54.345Z,0.97
2019-05-12T14:37:19.214Z,0.80
2019-05-12T14:39:50.280Z,0.90
2019-05-12T14:42:19.117Z,0.80
2019-05-12T14:44:49.758Z,1.10
2019-05-12T14:47:24.078Z,1.10
2019-05-12T14:49:49.783Z,0.70
2019-05-12T14:52:18.789Z,0.73
2019-05-12T14:54:47.775Z,1.00
2019-05-12T14:57:16.865Z,0.87
2019-05-12T14:59:45.926Z,1.10
2019-05-12T15:02:19.441Z,0.67
2019-05-12T15:04:45.786Z,0.70
2019-05-12T15:07:15.387Z,0.70
2019-05-12T15:09:44.512Z,0.70
2019-05-12T15:12:14.135Z,0.80
2019-05-12T15:14:43.868Z,0.70
2019-05-12T15:17:22.223Z,0.70
2019-05-12T15:19:44.117Z,0.73
2019-05-12T15:22:14.707Z,0.60
2019-05-12T15:24:44.184Z,0.70
2019-05-12T15:27:13.563Z,0.70
2019-05-12T15:29:42.739Z,0.90
2019-05-12T15:32:11.847Z,1.17
2019-05-12T15:34:40.872Z,0.93
2019-05-12T15:37:09.950Z,0.93
2019-05-12T15:39:39.016Z,0.90
2019-05-12T15:42:08.111Z,0.80
2019-05-12T15:44:37.182Z,0.63
2019-05-12T15:47:06.245Z,0.70
2019-05-12T15:49:35.287Z,0.90
2019-05-12T15:52:04.360Z,0.80
2019-05-12T15:54:35.847Z,0.80
2019-05-12T15:57:04.307Z,0.90
2019-05-12T15:59:34.547Z,0.97
2019-05-12T16:02:12.391Z,0.80
2019-05-12T16:04:42.543Z,0.70
2019-05-12T16:07:05.478Z,0.60
2019-05-12T16:09:34.778Z,0.80
2019-05-12T16:12:09.485Z,0.90
2019-05-12T16:14:36.859Z,0.73
2019-05-12T16:17:06.624Z,0.70
2019-05-12T16:19:35.811Z,0.83
2019-05-12T16:22:04.894Z,0.80
2019-05-12T16:24:34.193Z,1.00
2019-05-12T16:27:03.727Z,0.60
2019-05-12T16:29:33.970Z,0.80
2019-05-12T16:32:04.525Z,0.70
2019-05-12T16:34:36.094Z,0.73
2019-05-12T16:37:05.306Z,0.70
2019-05-12T16:39:37.142Z,0.70
2019-05-12T16:42:09.188Z,0.60
2019-05-12T16:44:35.994Z,0.90
2019-05-12T16:47:05.042Z,0.50
2019-05-12T16:49:35.217Z,0.60
2019-05-12T16:52:04.992Z,0.70
2019-05-12T16:54:34.082Z,0.60
2019-05-12T16:57:08.455Z,0.87
2019-05-12T16:59:33.979Z,0.60
2019-05-12T17:02:05.514Z,0.60
2019-05-12T17:04:33.850Z,0.90
2019-05-12T17:07:03.008Z,0.60
2019-05-12T17:09:33.260Z,0.70
2019-05-12T17:12:04.917Z,0.80
2019-05-12T17:14:38.712Z,0.80
2019-05-12T17:17:04.048Z,0.73
2019-05-12T17:19:34.032Z,0.80
2019-05-12T17:22:04.013Z,0.70
2019-05-12T17:24:34.450Z,0.60
2019-05-12T17:27:03.889Z,0.80
2019-05-12T17:29:34.544Z,1.00
2019-05-12T17:32:04.246Z,0.90
2019-05-12T17:34:34.087Z,0.90
2019-05-12T17:37:03.989Z,0.73
2019-05-12T17:39:35.715Z,0.93
2019-05-12T17:42:04.140Z,1.10
2019-05-12T17:44:36.784Z,1.10
2019-05-12T17:47:03.956Z,1.00
2019-05-12T17:49:33.025Z,0.70
2019-05-12T17:52:12.305Z,0.83
2019-05-12T17:54:34.173Z,0.93
2019-05-12T17:57:03.939Z,0.70
2019-05-12T17:59:33.409Z,0.80
2019-05-12T18:02:05.850Z,0.73
2019-05-12T18:04:36.698Z,0.77
2019-05-12T18:07:30.450Z,0.70
2019-05-12T18:09:50.401Z,0.70
2019-05-12T18:12:26.872Z,0.80
2019-05-12T18:14:52.676Z,0.90
2019-05-12T18:17:23.653Z,0.80
2019-05-12T18:19:59.031Z,0.83
2019-05-12T18:22:23.641Z,0.70
2019-05-12T18:24:54.311Z,0.93
2019-05-12T18:27:23.346Z,0.73
2019-05-12T18:29:53.607Z,0.83
2019-05-12T18:32:24.371Z,1.20
2019-05-12T18:34:53.982Z,0.90
2019-05-12T18:37:24.061Z,0.90
2019-05-12T18:39:53.591Z,0.90
2019-05-12T18:42:24.579Z,0.93
2019-05-12T18:44:54.612Z,0.80
2019-05-12T18:47:32.008Z,0.80
2019-05-12T18:49:54.482Z,0.90
2019-05-12T18:52:23.759Z,1.10
2019-05-12T18:54:57.004Z,0.90
2019-05-12T18:57:23.954Z,0.80
2019-05-12T18:59:57.143Z,0.80
2019-05-12T19:02:28.328Z,0.70
2019-05-12T19:04:54.694Z,0.70
2019-05-12T19:07:38.927Z,0.80
2019-05-12T19:09:54.594Z,0.87
2019-05-12T19:12:31.892Z,0.60
2019-05-12T19:14:54.793Z,0.70
2019-05-12T19:17:24.210Z,0.60
2019-05-12T19:19:59.628Z,1.03
2019-05-12T19:22:24.412Z,0.87
2019-05-12T19:24:56.753Z,0.83
2019-05-12T19:27:24.266Z,0.70
2019-05-12T19:29:54.549Z,0.70
2019-05-12T19:32:28.004Z,0.63
2019-05-12T19:34:54.706Z,0.83
2019-05-12T19:37:26.406Z,0.80
2019-05-12T19:39:54.633Z,0.80
2019-05-12T19:42:24.481Z,0.90
2019-05-12T19:44:56.605Z,0.80
2019-05-12T19:47:33.240Z,0.80
2019-05-12T19:49:59.472Z,0.70
2019-05-12T19:52:26.046Z,0.70
2019-05-12T19:54:55.241Z,0.70
2019-05-12T19:57:26.236Z,0.60
2019-05-12T19:59:55.945Z,0.80
2019-05-12T20:02:25.187Z,0.90
2019-05-12T20:04:56.552Z,0.80
2019-05-12T20:07:25.079Z,0.63
2019-05-12T20:09:58.671Z,0.80
2019-05-12T20:12:24.930Z,0.80
2019-05-12T20:14:56.735Z,0.80
2019-05-12T20:17:24.772Z,0.80
2019-05-12T20:19:54.136Z,0.70
2019-05-12T20:22:24.354Z,0.70
2019-05-12T20:24:53.830Z,0.93
2019-05-12T20:27:24.730Z,0.70
2019-05-12T20:29:54.132Z,0.63
2019-05-12T20:32:24.125Z,0.77
2019-05-12T20:34:55.418Z,0.70
2019-05-12T20:37:24.034Z,0.60
2019-05-12T20:40:00.108Z,0.60
2019-05-12T20:42:25.786Z,0.67
2019-05-12T20:44:57.805Z,0.60
2019-05-12T20:47:25.506Z,0.70
2019-05-12T20:49:54.567Z,0.70
2019-05-12T20:52:23.808Z,0.97
2019-05-12T20:54:57.756Z,0.90
2019-05-12T20:57:23.783Z,1.03
2019-05-12T20:59:52.851Z,1.00
2019-05-12T21:02:23.412Z,1.00
2019-05-12T21:05:00.450Z,0.80
2019-05-12T21:07:26.825Z,1.00
2019-05-12T21:09:54.063Z,0.97
2019-05-12T21:12:24.180Z,0.77
2019-05-12T21:14:57.425Z,0.80
2019-05-12T21:17:38.953Z,0.93
2019-05-12T21:19:58.879Z,1.00
2019-05-12T21:22:25.507Z,0.80
2019-05-12T21:24:54.579Z,1.00
2019-05-12T21:27:23.580Z,1.00
2019-05-12T21:29:54.098Z,1.00
2019-05-12T21:32:24.052Z,1.03
2019-05-12T21:34:57.943Z,1.20
2019-05-12T21:37:25.434Z,1.03
2019-05-12T21:39:54.551Z,0.90
2019-05-12T21:42:25.168Z,1.10
2019-05-12T21:44:54.215Z,1.10
2019-05-12T21:47:24.279Z,1.10
2019-05-12T21:49:57.759Z,1.10
2019-05-12T21:52:24.227Z,0.90
2019-05-12T21:54:55.429Z,1.07
2019-05-12T21:57:27.370Z,1.10
2019-05-12T21:59:55.664Z,1.03
2019-05-12T22:02:30.464Z,1.20
2019-05-12T22:04:56.042Z,1.10
2019-05-12T22:07:29.537Z,1.10
2019-05-12T22:09:55.966Z,1.23
2019-05-12T22:12:28.579Z,1.10
2019-05-12T22:14:55.813Z,1.10
2019-05-12T22:17:24.853Z,1.20
2019-05-12T22:19:53.829Z,1.30
2019-05-12T22:22:25.748Z,1.00
2019-05-12T22:24:53.828Z,1.30
2019-05-12T22:27:27.129Z,1.50
2019-05-12T22:29:54.078Z,1.00
2019-05-12T22:32:25.274Z,1.30
2019-05-12T22:34:54.425Z,1.20
2019-05-12T22:37:24.029Z,1.07
2019-05-12T22:39:53.534Z,1.10
2019-05-12T22:42:24.436Z,0.87
2019-05-12T22:45:01.443Z,1.03
2019-05-12T22:47:24.353Z,1.30
2019-05-12T22:49:56.986Z,1.30
2019-05-12T22:52:24.204Z,1.47
2019-05-12T22:54:53.721Z,1.13
2019-05-12T22:57:24.159Z,1.40
2019-05-12T22:59:53.366Z,1.30
2019-05-12T23:02:27.985Z,1.70
2019-05-12T23:04:55.111Z,1.20
2019-05-12T23:07:25.421Z,0.97
2019-05-12T23:09:54.814Z,1.10
2019-05-12T23:12:23.787Z,1.07
2019-05-12T23:15:02.152Z,1.00
2019-05-12T23:17:24.628Z,1.07
2019-05-12T23:19:55.775Z,1.23
2019-05-12T23:22:29.440Z,1.10
2019-05-12T23:24:55.432Z,1.00
2019-05-12T23:27:29.753Z,1.20
2019-05-12T23:29:55.188Z,1.30
2019-05-12T23:32:24.302Z,0.90
2019-05-12T23:34:58.387Z,1.10
2019-05-12T23:37:24.496Z,1.30
2019-05-12T23:39:53.845Z,1.20
2019-05-12T23:42:23.714Z,1.37
2019-05-12T23:44:52.902Z,1.10
2019-05-12T23:47:23.787Z,0.97
2019-05-12T23:49:53.165Z,1.33
2019-05-12T23:52:24.100Z,1.30
2019-05-12T23:54:53.257Z,1.27
2019-05-12T23:57:24.151Z,1.40
2019-05-12T23:59:53.115Z,1.33
